sensor_id;sensor_type;location;lat;lon;timestamp;temperature;humidity
17415;DHT22;8825;48.086;16.426;2024-03-22T00:00:00;13.40;65.30
17415;DHT22;8825;48.086;16.426;2024-03-22T00:02:27;13.40;65.40
17415;DHT22;8825;48.086;16.426;2024-03-22T00:04:55;13.40;65.60
17415;DHT22;8825;48.086;16.426;2024-03-22T00:07:22;13.40;65.50
17415;DHT22;8825;48.086;16.426;2024-03-22T00:09:50;13.40;65.50
17415;DHT22;8825;48.086;16.426;2024-03-22T00:12:17;13.40;65.70
17415;DHT22;8825;48.086;16.426;2024-03-22T00:14:45;13.30;65.80
17415;DHT22;8825;48.086;16.426;2024-03-22T00:17:12;13.40;65.90
17415;DHT22;8825;48.086;16.426;2024-03-22T00:19:40;13.30;65.90
17415;DHT22;8825;48.086;16.426;2024-03-22T00:22:07;13.30;66.00
17415;DHT22;8825;48.086;16.426;2024-03-22T00:24:35;13.30;66.00
17415;DHT22;8825;48.086;16.426;2024-03-22T00:27:02;13.30;66.00
17415;DHT22;8825;48.086;16.426;2024-03-22T00:29:30;13.30;66.20
17415;DHT22;8825;48.086;16.426;2024-03-22T00:31:57;13.30;66.10
17415;DHT22;8825;48.086;16.426;2024-03-22T00:34:26;13.40;66.30
17415;DHT22;8825;48.086;16.426;2024-03-22T00:36:53;13.40;66.30
17415;DHT22;8825;48.086;16.426;2024-03-22T00:39:21;13.40;66.30
17415;DHT22;8825;48.086;16.426;2024-03-22T00:41:48;13.50;66.40
17415;DHT22;8825;48.086;16.426;2024-03-22T00:44:16;13.40;66.30
17415;DHT22;8825;48.086;16.426;2024-03-22T00:46:43;13.50;66.50
17415;DHT22;8825;48.086;16.426;2024-03-22T00:49:11;13.50;66.50
17415;DHT22;8825;48.086;16.426;2024-03-22T00:51:39;13.50;66.50
17415;DHT22;8825;48.086;16.426;2024-03-22T00:54:08;13.60;67.40
17415;DHT22;8825;48.086;16.426;2024-03-22T00:56:36;13.60;66.50
17415;DHT22;8825;48.086;16.426;2024-03-22T00:59:03;13.60;66.60
17415;DHT22;8825;48.086;16.426;2024-03-22T01:01:31;13.60;66.60
17415;DHT22;8825;48.086;16.426;2024-03-22T01:03:58;13.60;66.70
17415;DHT22;8825;48.086;16.426;2024-03-22T01:06:26;13.70;66.60
17415;DHT22;8825;48.086;16.426;2024-03-22T01:08:54;13.70;66.60
17415;DHT22;8825;48.086;16.426;2024-03-22T01:11:22;13.70;66.60
17415;DHT22;8825;48.086;16.426;2024-03-22T01:13:49;13.70;66.50
17415;DHT22;8825;48.086;16.426;2024-03-22T01:16:17;13.70;66.40
17415;DHT22;8825;48.086;16.426;2024-03-22T01:18:44;13.80;66.50
17415;DHT22;8825;48.086;16.426;2024-03-22T01:21:12;13.80;66.40
17415;DHT22;8825;48.086;16.426;2024-03-22T01:23:39;13.80;66.40
17415;DHT22;8825;48.086;16.426;2024-03-22T01:26:07;13.80;66.30
17415;DHT22;8825;48.086;16.426;2024-03-22T01:28:34;13.80;66.10
17415;DHT22;8825;48.086;16.426;2024-03-22T01:31:02;13.80;66.10
17415;DHT22;8825;48.086;16.426;2024-03-22T01:33:29;13.80;66.00
17415;DHT22;8825;48.086;16.426;2024-03-22T01:35:57;13.80;66.00
17415;DHT22;8825;48.086;16.426;2024-03-22T01:38:24;13.80;65.90
17415;DHT22;8825;48.086;16.426;2024-03-22T01:40:52;13.80;65.80
17415;DHT22;8825;48.086;16.426;2024-03-22T01:43:19;13.90;65.70
17415;DHT22;8825;48.086;16.426;2024-03-22T01:45:47;13.90;65.60
17415;DHT22;8825;48.086;16.426;2024-03-22T01:48:14;13.90;65.40
17415;DHT22;8825;48.086;16.426;2024-03-22T01:50:42;13.90;65.50
17415;DHT22;8825;48.086;16.426;2024-03-22T01:53:10;13.90;65.40
17415;DHT22;8825;48.086;16.426;2024-03-22T01:55:38;14.00;65.30
17415;DHT22;8825;48.086;16.426;2024-03-22T01:58:07;13.90;65.20
17415;DHT22;8825;48.086;16.426;2024-03-22T02:00:34;14.00;65.30
17415;DHT22;8825;48.086;16.426;2024-03-22T02:03:02;13.90;65.10
17415;DHT22;8825;48.086;16.426;2024-03-22T02:05:30;13.90;65.00
17415;DHT22;8825;48.086;16.426;2024-03-22T02:07:57;13.90;64.90
17415;DHT22;8825;48.086;16.426;2024-03-22T02:10:25;13.90;64.90
17415;DHT22;8825;48.086;16.426;2024-03-22T02:12:52;14.00;64.80
17415;DHT22;8825;48.086;16.426;2024-03-22T02:15:20;14.00;64.70
17415;DHT22;8825;48.086;16.426;2024-03-22T02:17:47;14.00;64.70
17415;DHT22;8825;48.086;16.426;2024-03-22T02:20:15;13.90;64.70
17415;DHT22;8825;48.086;16.426;2024-03-22T02:22:42;13.90;64.70
17415;DHT22;8825;48.086;16.426;2024-03-22T02:25:10;14.00;64.70
17415;DHT22;8825;48.086;16.426;2024-03-22T02:27:38;13.90;64.60
17415;DHT22;8825;48.086;16.426;2024-03-22T02:30:07;14.00;64.60
17415;DHT22;8825;48.086;16.426;2024-03-22T02:32:35;14.00;64.60
17415;DHT22;8825;48.086;16.426;2024-03-22T02:35:04;14.00;64.70
17415;DHT22;8825;48.086;16.426;2024-03-22T02:37:31;13.90;64.50
17415;DHT22;8825;48.086;16.426;2024-03-22T02:39:59;13.90;64.60
17415;DHT22;8825;48.086;16.426;2024-03-22T02:42:26;13.90;64.70
17415;DHT22;8825;48.086;16.426;2024-03-22T02:44:54;13.90;64.60
17415;DHT22;8825;48.086;16.426;2024-03-22T02:47:21;13.90;64.90
17415;DHT22;8825;48.086;16.426;2024-03-22T02:49:49;13.90;64.70
17415;DHT22;8825;48.086;16.426;2024-03-22T02:52:16;13.90;64.70
17415;DHT22;8825;48.086;16.426;2024-03-22T02:54:44;13.90;64.70
17415;DHT22;8825;48.086;16.426;2024-03-22T02:57:12;13.90;64.70
17415;DHT22;8825;48.086;16.426;2024-03-22T02:59:39;13.90;64.70
17415;DHT22;8825;48.086;16.426;2024-03-22T03:02:07;13.90;64.80
17415;DHT22;8825;48.086;16.426;2024-03-22T03:04:34;13.90;64.80
17415;DHT22;8825;48.086;16.426;2024-03-22T03:07:02;13.90;64.90
17415;DHT22;8825;48.086;16.426;2024-03-22T03:09:29;13.90;64.80
17415;DHT22;8825;48.086;16.426;2024-03-22T03:11:57;13.90;64.90
17415;DHT22;8825;48.086;16.426;2024-03-22T03:14:24;13.90;64.80
17415;DHT22;8825;48.086;16.426;2024-03-22T03:16:52;13.90;64.90
17415;DHT22;8825;48.086;16.426;2024-03-22T03:19:20;13.80;64.90
17415;DHT22;8825;48.086;16.426;2024-03-22T03:21:47;13.80;65.00
17415;DHT22;8825;48.086;16.426;2024-03-22T03:24:14;13.80;65.00
17415;DHT22;8825;48.086;16.426;2024-03-22T03:26:42;13.80;64.90
17415;DHT22;8825;48.086;16.426;2024-03-22T03:29:10;13.80;64.90
17415;DHT22;8825;48.086;16.426;2024-03-22T03:31:37;13.80;65.70
17415;DHT22;8825;48.086;16.426;2024-03-22T03:34:05;13.80;64.90
17415;DHT22;8825;48.086;16.426;2024-03-22T03:36:32;13.80;64.80
17415;DHT22;8825;48.086;16.426;2024-03-22T03:39:00;13.70;64.80
17415;DHT22;8825;48.086;16.426;2024-03-22T03:41:27;13.70;64.80
17415;DHT22;8825;48.086;16.426;2024-03-22T03:43:55;13.70;64.90
17415;DHT22;8825;48.086;16.426;2024-03-22T03:46:23;13.70;64.80
17415;DHT22;8825;48.086;16.426;2024-03-22T03:48:50;13.70;64.80
17415;DHT22;8825;48.086;16.426;2024-03-22T03:51:18;13.70;64.80
17415;DHT22;8825;48.086;16.426;2024-03-22T03:53:45;13.60;64.70
17415;DHT22;8825;48.086;16.426;2024-03-22T03:56:13;13.60;64.70
17415;DHT22;8825;48.086;16.426;2024-03-22T03:58:40;13.60;64.70
17415;DHT22;8825;48.086;16.426;2024-03-22T04:01:08;13.60;64.80
17415;DHT22;8825;48.086;16.426;2024-03-22T04:03:36;13.60;64.80
17415;DHT22;8825;48.086;16.426;2024-03-22T04:06:04;13.50;64.70
17415;DHT22;8825;48.086;16.426;2024-03-22T04:08:32;13.50;64.70
17415;DHT22;8825;48.086;16.426;2024-03-22T04:10:59;13.50;64.70
17415;DHT22;8825;48.086;16.426;2024-03-22T04:13:27;13.50;64.70
17415;DHT22;8825;48.086;16.426;2024-03-22T04:15:58;13.50;64.80
17415;DHT22;8825;48.086;16.426;2024-03-22T04:18:25;13.50;64.80
17415;DHT22;8825;48.086;16.426;2024-03-22T04:20:54;13.50;64.70
17415;DHT22;8825;48.086;16.426;2024-03-22T04:23:22;13.50;65.60
17415;DHT22;8825;48.086;16.426;2024-03-22T04:25:58;13.50;64.80
17415;DHT22;8825;48.086;16.426;2024-03-22T04:28:27;13.50;64.80
17415;DHT22;8825;48.086;16.426;2024-03-22T04:31:02;13.60;64.70
17415;DHT22;8825;48.086;16.426;2024-03-22T04:33:31;13.50;64.70
17415;DHT22;8825;48.086;16.426;2024-03-22T04:36:00;13.60;64.80
17415;DHT22;8825;48.086;16.426;2024-03-22T04:38:28;13.60;64.80
17415;DHT22;8825;48.086;16.426;2024-03-22T04:40:57;13.50;64.80
17415;DHT22;8825;48.086;16.426;2024-03-22T04:43:25;13.60;65.70
17415;DHT22;8825;48.086;16.426;2024-03-22T04:45:52;13.50;64.90
17415;DHT22;8825;48.086;16.426;2024-03-22T04:48:21;13.60;65.00
17415;DHT22;8825;48.086;16.426;2024-03-22T04:50:50;13.60;64.90
17415;DHT22;8825;48.086;16.426;2024-03-22T04:53:21;13.60;64.90
17415;DHT22;8825;48.086;16.426;2024-03-22T04:55:49;13.60;64.80
17415;DHT22;8825;48.086;16.426;2024-03-22T04:58:18;13.60;64.80
17415;DHT22;8825;48.086;16.426;2024-03-22T05:00:49;13.60;64.80
17415;DHT22;8825;48.086;16.426;2024-03-22T05:03:17;13.60;64.70
17415;DHT22;8825;48.086;16.426;2024-03-22T05:05:45;13.60;64.60
17415;DHT22;8825;48.086;16.426;2024-03-22T05:08:12;13.60;64.60
17415;DHT22;8825;48.086;16.426;2024-03-22T05:10:40;13.60;64.50
17415;DHT22;8825;48.086;16.426;2024-03-22T05:13:08;13.60;64.50
17415;DHT22;8825;48.086;16.426;2024-03-22T05:15:36;13.60;63.90
17415;DHT22;8825;48.086;16.426;2024-03-22T05:18:04;13.60;64.20
17415;DHT22;8825;48.086;16.426;2024-03-22T05:20:31;13.60;64.20
17415;DHT22;8825;48.086;16.426;2024-03-22T05:22:59;13.60;64.20
17415;DHT22;8825;48.086;16.426;2024-03-22T05:25:26;13.60;64.10
17415;DHT22;8825;48.086;16.426;2024-03-22T05:27:54;13.60;64.00
17415;DHT22;8825;48.086;16.426;2024-03-22T05:30:21;13.70;64.00
17415;DHT22;8825;48.086;16.426;2024-03-22T05:32:49;13.70;63.90
17415;DHT22;8825;48.086;16.426;2024-03-22T05:35:17;13.70;63.90
17415;DHT22;8825;48.086;16.426;2024-03-22T05:37:45;13.70;63.90
17415;DHT22;8825;48.086;16.426;2024-03-22T05:40:13;13.70;63.60
17415;DHT22;8825;48.086;16.426;2024-03-22T05:42:40;13.70;63.60
17415;DHT22;8825;48.086;16.426;2024-03-22T05:45:08;13.70;63.60
17415;DHT22;8825;48.086;16.426;2024-03-22T05:47:36;13.70;63.50
17415;DHT22;8825;48.086;16.426;2024-03-22T05:50:05;13.70;63.40
17415;DHT22;8825;48.086;16.426;2024-03-22T05:52:35;13.70;63.40
17415;DHT22;8825;48.086;16.426;2024-03-22T05:55:03;13.70;63.40
17415;DHT22;8825;48.086;16.426;2024-03-22T05:57:31;13.70;63.30
17415;DHT22;8825;48.086;16.426;2024-03-22T05:59:58;13.70;63.20
17415;DHT22;8825;48.086;16.426;2024-03-22T06:02:26;13.70;63.30
17415;DHT22;8825;48.086;16.426;2024-03-22T06:04:53;13.70;63.20
17415;DHT22;8825;48.086;16.426;2024-03-22T06:07:21;13.80;63.10
17415;DHT22;8825;48.086;16.426;2024-03-22T06:09:48;13.80;63.10
17415;DHT22;8825;48.086;16.426;2024-03-22T06:12:16;13.80;63.10
17415;DHT22;8825;48.086;16.426;2024-03-22T06:14:44;13.90;63.10
17415;DHT22;8825;48.086;16.426;2024-03-22T06:17:14;13.90;62.90
17415;DHT22;8825;48.086;16.426;2024-03-22T06:19:42;13.90;62.80
17415;DHT22;8825;48.086;16.426;2024-03-22T06:22:09;13.90;62.80
17415;DHT22;8825;48.086;16.426;2024-03-22T06:24:37;14.00;62.90
17415;DHT22;8825;48.086;16.426;2024-03-22T06:27:05;14.00;63.00
17415;DHT22;8825;48.086;16.426;2024-03-22T06:29:34;14.00;62.80
17415;DHT22;8825;48.086;16.426;2024-03-22T06:32:01;14.00;62.80
17415;DHT22;8825;48.086;16.426;2024-03-22T06:34:29;14.10;62.50
17415;DHT22;8825;48.086;16.426;2024-03-22T06:36:57;14.10;62.40
17415;DHT22;8825;48.086;16.426;2024-03-22T06:39:24;14.10;62.40
17415;DHT22;8825;48.086;16.426;2024-03-22T06:41:52;14.20;62.20
17415;DHT22;8825;48.086;16.426;2024-03-22T06:44:19;14.20;62.10
17415;DHT22;8825;48.086;16.426;2024-03-22T06:46:47;14.20;61.90
17415;DHT22;8825;48.086;16.426;2024-03-22T06:49:15;14.30;62.10
17415;DHT22;8825;48.086;16.426;2024-03-22T06:51:42;14.30;61.80
17415;DHT22;8825;48.086;16.426;2024-03-22T06:54:10;14.30;61.70
17415;DHT22;8825;48.086;16.426;2024-03-22T06:56:37;14.40;61.80
17415;DHT22;8825;48.086;16.426;2024-03-22T06:59:05;14.40;61.90
17415;DHT22;8825;48.086;16.426;2024-03-22T07:01:33;14.50;61.90
17415;DHT22;8825;48.086;16.426;2024-03-22T07:04:00;14.50;61.70
17415;DHT22;8825;48.086;16.426;2024-03-22T07:06:28;14.60;61.30
17415;DHT22;8825;48.086;16.426;2024-03-22T07:08:56;14.60;61.10
17415;DHT22;8825;48.086;16.426;2024-03-22T07:11:24;14.70;61.30
17415;DHT22;8825;48.086;16.426;2024-03-22T07:13:51;14.70;61.10
17415;DHT22;8825;48.086;16.426;2024-03-22T07:16:19;14.80;61.10
17415;DHT22;8825;48.086;16.426;2024-03-22T07:18:47;14.80;61.00
17415;DHT22;8825;48.086;16.426;2024-03-22T07:21:15;14.90;61.70
17415;DHT22;8825;48.086;16.426;2024-03-22T07:23:42;14.90;60.80
17415;DHT22;8825;48.086;16.426;2024-03-22T07:26:10;14.90;60.60
17415;DHT22;8825;48.086;16.426;2024-03-22T07:28:37;15.00;60.40
17415;DHT22;8825;48.086;16.426;2024-03-22T07:31:05;15.00;60.30
17415;DHT22;8825;48.086;16.426;2024-03-22T07:33:33;15.00;60.20
17415;DHT22;8825;48.086;16.426;2024-03-22T07:36:03;15.10;60.10
17415;DHT22;8825;48.086;16.426;2024-03-22T07:38:31;15.10;60.00
17415;DHT22;8825;48.086;16.426;2024-03-22T07:40:59;15.20;60.00
17415;DHT22;8825;48.086;16.426;2024-03-22T07:43:46;15.20;60.70
17415;DHT22;8825;48.086;16.426;2024-03-22T07:46:13;15.20;59.70
17415;DHT22;8825;48.086;16.426;2024-03-22T07:48:41;15.20;59.70
17415;DHT22;8825;48.086;16.426;2024-03-22T07:51:08;15.30;59.70
17415;DHT22;8825;48.086;16.426;2024-03-22T07:53:36;15.30;59.50
17415;DHT22;8825;48.086;16.426;2024-03-22T07:56:04;15.40;59.50
17415;DHT22;8825;48.086;16.426;2024-03-22T07:58:31;15.50;59.40
17415;DHT22;8825;48.086;16.426;2024-03-22T08:00:59;15.50;59.30
17415;DHT22;8825;48.086;16.426;2024-03-22T08:03:26;15.60;59.20
17415;DHT22;8825;48.086;16.426;2024-03-22T08:05:54;15.70;59.10
17415;DHT22;8825;48.086;16.426;2024-03-22T08:08:21;15.90;58.90
17415;DHT22;8825;48.086;16.426;2024-03-22T08:10:49;16.00;58.60
17415;DHT22;8825;48.086;16.426;2024-03-22T08:13:16;16.10;58.30
17415;DHT22;8825;48.086;16.426;2024-03-22T08:15:44;16.20;58.00
17415;DHT22;8825;48.086;16.426;2024-03-22T08:18:13;16.20;57.70
17415;DHT22;8825;48.086;16.426;2024-03-22T08:20:40;16.30;57.60
17415;DHT22;8825;48.086;16.426;2024-03-22T08:23:09;16.40;57.50
17415;DHT22;8825;48.086;16.426;2024-03-22T08:25:37;16.50;57.20
17415;DHT22;8825;48.086;16.426;2024-03-22T08:28:05;16.50;57.00
17415;DHT22;8825;48.086;16.426;2024-03-22T08:30:32;16.60;56.80
17415;DHT22;8825;48.086;16.426;2024-03-22T08:33:01;16.70;56.70
17415;DHT22;8825;48.086;16.426;2024-03-22T08:35:30;16.80;56.50
17415;DHT22;8825;48.086;16.426;2024-03-22T08:37:58;16.90;56.30
17415;DHT22;8825;48.086;16.426;2024-03-22T08:40:25;17.00;56.00
17415;DHT22;8825;48.086;16.426;2024-03-22T08:42:53;17.00;55.70
17415;DHT22;8825;48.086;16.426;2024-03-22T08:45:21;17.10;55.70
17415;DHT22;8825;48.086;16.426;2024-03-22T08:47:48;17.20;55.50
17415;DHT22;8825;48.086;16.426;2024-03-22T08:50:16;17.30;55.80
17415;DHT22;8825;48.086;16.426;2024-03-22T08:52:44;17.40;54.40
17415;DHT22;8825;48.086;16.426;2024-03-22T08:55:11;17.40;54.10
17415;DHT22;8825;48.086;16.426;2024-03-22T08:57:39;17.50;54.50
17415;DHT22;8825;48.086;16.426;2024-03-22T09:00:07;17.60;53.70
17415;DHT22;8825;48.086;16.426;2024-03-22T09:02:35;17.60;53.10
17415;DHT22;8825;48.086;16.426;2024-03-22T09:05:04;17.70;52.80
17415;DHT22;8825;48.086;16.426;2024-03-22T09:07:32;17.70;52.00
17415;DHT22;8825;48.086;16.426;2024-03-22T09:09:59;17.60;51.80
17415;DHT22;8825;48.086;16.426;2024-03-22T09:12:27;17.60;51.30
17415;DHT22;8825;48.086;16.426;2024-03-22T09:14:54;17.60;51.20
17415;DHT22;8825;48.086;16.426;2024-03-22T09:17:22;17.60;51.10
17415;DHT22;8825;48.086;16.426;2024-03-22T09:19:49;17.60;51.00
17415;DHT22;8825;48.086;16.426;2024-03-22T09:22:17;17.50;51.00
17415;DHT22;8825;48.086;16.426;2024-03-22T09:24:44;17.60;51.10
17415;DHT22;8825;48.086;16.426;2024-03-22T09:27:12;17.60;50.90
17415;DHT22;8825;48.086;16.426;2024-03-22T09:29:39;17.60;50.30
17415;DHT22;8825;48.086;16.426;2024-03-22T09:32:07;17.60;50.00
17415;DHT22;8825;48.086;16.426;2024-03-22T09:34:34;17.60;50.30
17415;DHT22;8825;48.086;16.426;2024-03-22T09:37:02;17.60;50.20
17415;DHT22;8825;48.086;16.426;2024-03-22T09:39:30;17.70;50.30
17415;DHT22;8825;48.086;16.426;2024-03-22T09:41:59;17.80;50.40
17415;DHT22;8825;48.086;16.426;2024-03-22T09:44:28;17.80;50.20
17415;DHT22;8825;48.086;16.426;2024-03-22T09:46:57;17.90;50.10
17415;DHT22;8825;48.086;16.426;2024-03-22T09:49:25;17.90;50.70
17415;DHT22;8825;48.086;16.426;2024-03-22T09:51:53;18.00;50.30
17415;DHT22;8825;48.086;16.426;2024-03-22T09:54:23;18.00;49.80
17415;DHT22;8825;48.086;16.426;2024-03-22T09:56:52;18.00;49.60
17415;DHT22;8825;48.086;16.426;2024-03-22T09:59:21;18.10;49.40
17415;DHT22;8825;48.086;16.426;2024-03-22T10:01:50;18.20;49.20
17415;DHT22;8825;48.086;16.426;2024-03-22T10:04:18;18.30;49.10
17415;DHT22;8825;48.086;16.426;2024-03-22T10:06:47;18.30;48.50
17415;DHT22;8825;48.086;16.426;2024-03-22T10:09:16;18.40;48.70
17415;DHT22;8825;48.086;16.426;2024-03-22T10:11:44;18.50;48.90
17415;DHT22;8825;48.086;16.426;2024-03-22T10:14:12;18.60;48.20
17415;DHT22;8825;48.086;16.426;2024-03-22T10:16:39;18.60;47.70
17415;DHT22;8825;48.086;16.426;2024-03-22T10:19:07;18.60;47.50
17415;DHT22;8825;48.086;16.426;2024-03-22T10:21:34;18.60;47.20
17415;DHT22;8825;48.086;16.426;2024-03-22T10:24:02;18.60;46.70
17415;DHT22;8825;48.086;16.426;2024-03-22T10:26:33;18.60;46.70
17415;DHT22;8825;48.086;16.426;2024-03-22T10:29:00;18.70;46.90
17415;DHT22;8825;48.086;16.426;2024-03-22T10:31:28;18.80;46.90
17415;DHT22;8825;48.086;16.426;2024-03-22T10:33:56;18.80;46.30
17415;DHT22;8825;48.086;16.426;2024-03-22T10:36:26;18.80;46.20
17415;DHT22;8825;48.086;16.426;2024-03-22T10:38:55;18.80;46.20
17415;DHT22;8825;48.086;16.426;2024-03-22T10:41:24;18.80;45.70
17415;DHT22;8825;48.086;16.426;2024-03-22T10:43:52;18.80;45.50
17415;DHT22;8825;48.086;16.426;2024-03-22T10:46:20;18.80;45.30
17415;DHT22;8825;48.086;16.426;2024-03-22T10:48:48;18.80;44.50
17415;DHT22;8825;48.086;16.426;2024-03-22T10:51:17;18.80;44.20
17415;DHT22;8825;48.086;16.426;2024-03-22T10:53:45;18.90;44.40
17415;DHT22;8825;48.086;16.426;2024-03-22T10:56:14;18.90;44.20
17415;DHT22;8825;48.086;16.426;2024-03-22T10:58:43;19.00;44.30
17415;DHT22;8825;48.086;16.426;2024-03-22T11:01:27;19.00;43.90
17415;DHT22;8825;48.086;16.426;2024-03-22T11:04:06;19.00;43.90
17415;DHT22;8825;48.086;16.426;2024-03-22T11:06:33;19.10;43.80
17415;DHT22;8825;48.086;16.426;2024-03-22T11:09:01;19.10;43.80
17415;DHT22;8825;48.086;16.426;2024-03-22T11:11:30;19.20;44.00
17415;DHT22;8825;48.086;16.426;2024-03-22T11:13:59;19.30;43.60
17415;DHT22;8825;48.086;16.426;2024-03-22T11:16:27;19.40;43.20
17415;DHT22;8825;48.086;16.426;2024-03-22T11:18:55;19.50;43.20
17415;DHT22;8825;48.086;16.426;2024-03-22T11:21:22;19.50;42.70
17415;DHT22;8825;48.086;16.426;2024-03-22T11:23:50;19.60;42.50
17415;DHT22;8825;48.086;16.426;2024-03-22T11:26:18;19.60;42.50
17415;DHT22;8825;48.086;16.426;2024-03-22T11:28:46;19.70;42.50
17415;DHT22;8825;48.086;16.426;2024-03-22T11:31:14;19.80;42.60
17415;DHT22;8825;48.086;16.426;2024-03-22T11:33:43;19.80;42.30
17415;DHT22;8825;48.086;16.426;2024-03-22T11:36:11;19.80;42.00
17415;DHT22;8825;48.086;16.426;2024-03-22T11:38:39;19.80;42.30
17415;DHT22;8825;48.086;16.426;2024-03-22T11:41:06;19.80;42.40
17415;DHT22;8825;48.086;16.426;2024-03-22T11:43:35;19.80;42.00
17415;DHT22;8825;48.086;16.426;2024-03-22T11:46:03;19.80;42.40
17415;DHT22;8825;48.086;16.426;2024-03-22T11:48:30;19.80;42.40
17415;DHT22;8825;48.086;16.426;2024-03-22T11:50:58;19.80;42.50
17415;DHT22;8825;48.086;16.426;2024-03-22T11:53:27;19.90;42.30
17415;DHT22;8825;48.086;16.426;2024-03-22T11:55:54;19.90;42.50
17415;DHT22;8825;48.086;16.426;2024-03-22T11:58:22;20.00;42.70
17415;DHT22;8825;48.086;16.426;2024-03-22T12:00:50;20.20;42.90
17415;DHT22;8825;48.086;16.426;2024-03-22T12:03:18;20.30;42.60
17415;DHT22;8825;48.086;16.426;2024-03-22T12:05:45;20.40;42.70
17415;DHT22;8825;48.086;16.426;2024-03-22T12:08:13;20.50;42.20
17415;DHT22;8825;48.086;16.426;2024-03-22T12:10:41;20.60;42.00
17415;DHT22;8825;48.086;16.426;2024-03-22T12:13:08;20.80;41.50
17415;DHT22;8825;48.086;16.426;2024-03-22T12:15:36;21.00;41.10
17415;DHT22;8825;48.086;16.426;2024-03-22T12:18:04;21.10;40.50
17415;DHT22;8825;48.086;16.426;2024-03-22T12:20:31;21.20;39.90
17415;DHT22;8825;48.086;16.426;2024-03-22T12:22:59;21.20;39.30
17415;DHT22;8825;48.086;16.426;2024-03-22T12:25:27;21.30;38.70
17415;DHT22;8825;48.086;16.426;2024-03-22T12:27:54;21.40;38.90
17415;DHT22;8825;48.086;16.426;2024-03-22T12:30:22;21.50;38.70
17415;DHT22;8825;48.086;16.426;2024-03-22T12:32:49;21.60;38.90
17415;DHT22;8825;48.086;16.426;2024-03-22T12:35:17;21.80;39.10
17415;DHT22;8825;48.086;16.426;2024-03-22T12:37:44;22.00;38.00
17415;DHT22;8825;48.086;16.426;2024-03-22T12:40:12;22.00;37.80
17415;DHT22;8825;48.086;16.426;2024-03-22T12:42:41;22.10;38.00
17415;DHT22;8825;48.086;16.426;2024-03-22T12:45:09;22.00;37.10
17415;DHT22;8825;48.086;16.426;2024-03-22T12:47:37;21.90;36.90
17415;DHT22;8825;48.086;16.426;2024-03-22T12:50:05;21.80;36.90
17415;DHT22;8825;48.086;16.426;2024-03-22T12:52:33;21.70;36.90
17415;DHT22;8825;48.086;16.426;2024-03-22T12:55:01;21.60;36.90
17415;DHT22;8825;48.086;16.426;2024-03-22T12:57:29;21.60;37.00
17415;DHT22;8825;48.086;16.426;2024-03-22T12:59:56;21.60;37.30
17415;DHT22;8825;48.086;16.426;2024-03-22T13:02:24;21.60;37.50
17415;DHT22;8825;48.086;16.426;2024-03-22T13:04:54;21.60;37.30
17415;DHT22;8825;48.086;16.426;2024-03-22T13:07:22;21.50;36.90
17415;DHT22;8825;48.086;16.426;2024-03-22T13:09:50;21.50;36.80
17415;DHT22;8825;48.086;16.426;2024-03-22T13:12:18;21.50;36.70
17415;DHT22;8825;48.086;16.426;2024-03-22T13:14:46;21.60;36.60
17415;DHT22;8825;48.086;16.426;2024-03-22T13:17:14;21.50;36.40
17415;DHT22;8825;48.086;16.426;2024-03-22T13:19:41;21.40;36.20
17415;DHT22;8825;48.086;16.426;2024-03-22T13:22:09;21.30;35.80
17415;DHT22;8825;48.086;16.426;2024-03-22T13:24:36;21.30;36.30
17415;DHT22;8825;48.086;16.426;2024-03-22T13:27:04;21.20;36.30
17415;DHT22;8825;48.086;16.426;2024-03-22T13:29:31;21.10;36.20
17415;DHT22;8825;48.086;16.426;2024-03-22T13:31:59;21.10;36.60
17415;DHT22;8825;48.086;16.426;2024-03-22T13:34:26;21.10;37.50
17415;DHT22;8825;48.086;16.426;2024-03-22T13:36:55;21.10;37.00
17415;DHT22;8825;48.086;16.426;2024-03-22T13:39:22;21.30;36.70
17415;DHT22;8825;48.086;16.426;2024-03-22T13:41:49;21.30;36.70
17415;DHT22;8825;48.086;16.426;2024-03-22T13:44:17;21.40;36.50
17415;DHT22;8825;48.086;16.426;2024-03-22T13:46:45;21.40;36.60
17415;DHT22;8825;48.086;16.426;2024-03-22T13:49:15;21.40;36.70
17415;DHT22;8825;48.086;16.426;2024-03-22T13:51:44;21.40;36.80
17415;DHT22;8825;48.086;16.426;2024-03-22T13:54:12;21.40;36.80
17415;DHT22;8825;48.086;16.426;2024-03-22T13:56:40;21.40;36.80
17415;DHT22;8825;48.086;16.426;2024-03-22T13:59:08;21.30;37.30
17415;DHT22;8825;48.086;16.426;2024-03-22T14:01:36;21.30;37.40
17415;DHT22;8825;48.086;16.426;2024-03-22T14:04:23;21.20;37.30
17415;DHT22;8825;48.086;16.426;2024-03-22T14:06:53;21.10;37.10
17415;DHT22;8825;48.086;16.426;2024-03-22T14:09:20;21.00;37.00
17415;DHT22;8825;48.086;16.426;2024-03-22T14:11:48;20.90;36.70
17415;DHT22;8825;48.086;16.426;2024-03-22T14:14:15;20.80;36.50
17415;DHT22;8825;48.086;16.426;2024-03-22T14:16:43;20.80;36.30
17415;DHT22;8825;48.086;16.426;2024-03-22T14:19:10;20.70;36.50
17415;DHT22;8825;48.086;16.426;2024-03-22T14:21:38;20.70;36.60
17415;DHT22;8825;48.086;16.426;2024-03-22T14:24:06;20.60;36.50
17415;DHT22;8825;48.086;16.426;2024-03-22T14:26:34;20.60;36.70
17415;DHT22;8825;48.086;16.426;2024-03-22T14:29:03;20.60;36.50
17415;DHT22;8825;48.086;16.426;2024-03-22T14:31:31;20.50;36.30
17415;DHT22;8825;48.086;16.426;2024-03-22T14:33:58;20.50;36.10
17415;DHT22;8825;48.086;16.426;2024-03-22T14:36:26;20.40;35.80
17415;DHT22;8825;48.086;16.426;2024-03-22T14:38:54;20.30;35.80
17415;DHT22;8825;48.086;16.426;2024-03-22T14:41:21;20.30;36.00
17415;DHT22;8825;48.086;16.426;2024-03-22T14:43:49;20.30;36.00
17415;DHT22;8825;48.086;16.426;2024-03-22T14:46:17;20.30;35.80
17415;DHT22;8825;48.086;16.426;2024-03-22T14:48:46;20.30;35.60
17415;DHT22;8825;48.086;16.426;2024-03-22T14:51:14;20.20;35.80
17415;DHT22;8825;48.086;16.426;2024-03-22T14:53:41;20.20;36.10
17415;DHT22;8825;48.086;16.426;2024-03-22T14:56:09;20.20;36.30
17415;DHT22;8825;48.086;16.426;2024-03-22T14:58:38;20.20;36.40
17415;DHT22;8825;48.086;16.426;2024-03-22T15:01:06;20.20;36.50
17415;DHT22;8825;48.086;16.426;2024-03-22T15:03:35;20.10;36.40
17415;DHT22;8825;48.086;16.426;2024-03-22T15:06:03;20.10;36.40
17415;DHT22;8825;48.086;16.426;2024-03-22T15:08:31;20.00;36.30
17415;DHT22;8825;48.086;16.426;2024-03-22T15:10:59;20.00;36.40
17415;DHT22;8825;48.086;16.426;2024-03-22T15:13:26;19.90;36.60
17415;DHT22;8825;48.086;16.426;2024-03-22T15:15:57;19.90;36.80
17415;DHT22;8825;48.086;16.426;2024-03-22T15:18:25;19.90;36.90
17415;DHT22;8825;48.086;16.426;2024-03-22T15:20:54;19.90;37.10
17415;DHT22;8825;48.086;16.426;2024-03-22T15:23:22;19.80;37.10
17415;DHT22;8825;48.086;16.426;2024-03-22T15:25:50;19.80;37.70
17415;DHT22;8825;48.086;16.426;2024-03-22T15:28:17;19.80;37.70
17415;DHT22;8825;48.086;16.426;2024-03-22T15:30:45;19.80;37.80
17415;DHT22;8825;48.086;16.426;2024-03-22T15:33:12;19.80;38.10